WetterOnline ( http://www.wetteronline.de )

Wetter aktuell Bordj Bou Arr.

Aktuelles Wetter: Bordj Bou Arreridj (930m)

6-stündlich | Neueste Meldungen
Ortszeit Temperatur Wetter
Do, 21.02. 13:00 10.9° C bewölkt
Mi, 20.02. 13:00 14.8° C wolkig
Di, 19.02. 13:00 12.5° C leicht bewölkt
Mo, 18.02. 13:00 11.2° C fast wolkenlos
So, 17.02. 13:00 11.2° C leicht bewölkt
Do, 14.02. 13:00 14.2° C wolkenlos
Mi, 13.02. 13:00 10.7° C wolkenlos
Ortszeit Temperatur Wetter
Do, 21.02. 16:00 13.1° C bewölkt
Do, 21.02. 13:00 10.9° C bewölkt
Do, 21.02. 10:00 5.3° C bewölkt
Mi, 20.02. 16:00 14.9° C bewölkt
Mi, 20.02. 13:00 14.8° C wolkig
Ortszeit Relative Feuchte Sichtweite
Do, 21.02. 13:00 73% 8 km
Mi, 20.02. 13:00 37% 15 km
Di, 19.02. 13:00 37% 15 km
Mo, 18.02. 13:00 48% 15 km
So, 17.02. 13:00 45% 15 km
Do, 14.02. 13:00 39% 15 km
Mi, 13.02. 13:00 53% 15 km
Ortszeit Relative Feuchte Sichtweite
Do, 21.02. 16:00 55% 10 km
Do, 21.02. 13:00 73% 8 km
Do, 21.02. 10:00 91% 5.0 km
Mi, 20.02. 16:00 35% 15 km
Mi, 20.02. 13:00 37% 15 km
Ortszeit Niederschlagsmenge Niederschlagsart
Do, 21.02. 13:00 0.0 l/m2 in 6 Std. -
Mi, 20.02. 13:00 0.0 l/m2 in 6 Std. -
Di, 19.02. 13:00 0.0 l/m2 in 6 Std. -
Mo, 18.02. 13:00 0.0 l/m2 in 6 Std. -
So, 17.02. 13:00 0.0 l/m2 in 6 Std. -
Do, 14.02. 13:00 0.0 l/m2 in 6 Std. -
Mi, 13.02. 13:00 0.0 l/m2 in 6 Std. -
Ortszeit Niederschlagsmenge Niederschlagsart
Do, 21.02. 16:00 keine Meldung -
Do, 21.02. 13:00 keine Meldung -
Do, 21.02. 10:00 keine Meldung -
Mi, 20.02. 16:00 keine Meldung -
Mi, 20.02. 13:00 keine Meldung -
Ortszeit Stärke Spitze Richtung
km/h Bft. km/h Grad Sektor
Do, 21.02. 13:00 0 0 - - -
Mi, 20.02. 13:00 6 1 - 320° NW
Di, 19.02. 13:00 4 1 - 180° S
Mo, 18.02. 13:00 9 2 - 180° S
So, 17.02. 13:00 6 1 - 180° S
Do, 14.02. 13:00 0 0 - - -
Mi, 13.02. 13:00 4 1 - 360° N
Ortszeit Stärke Spitze Richtung
km/h Bft. km/h Grad Sektor
Do, 21.02. 16:00 0 0 - - -
Do, 21.02. 13:00 0 0 - - -
Do, 21.02. 10:00 0 0 - - -
Mi, 20.02. 16:00 0 0 - - -
Mi, 20.02. 13:00 6 1 - 320° NW
Ortszeit Untergrenze Bedeckung Gattung
total tief tief mittel hoch
Do, 21.02. 13:00 900 m 7/8 7/8 Cu - -
Mi, 20.02. 13:00 990 m 6/8 6/8 Cu - -
Di, 19.02. 13:00 6900 m 3/8 0/8 - - Ci
Mo, 18.02. 13:00 900 m 1/8 1/8 Cu - -
So, 17.02. 13:00 900 m 5/8 1/8 Cu - Ci
Do, 14.02. 13:00 - 0/8 0/8 - - -
Mi, 13.02. 13:00 - 0/8 0/8 - - -
Ortszeit Bedeckungsgrad in Achtel und Wolkenuntergrenze
Do, 21.02. 16:00 7(900m)
Do, 21.02. 13:00 7(900m)
Do, 21.02. 10:00 7(900m)
Mi, 20.02. 16:00 7(990m)
Mi, 20.02. 13:00 6(990m)
Ortszeit Stationsdruck (hPa) Tendenz (hPa in 3 Std.)
Do, 21.02. 13:00 918 + 0,2
Mi, 20.02. 13:00 913 0,0
Di, 19.02. 13:00 911 - 0,8
Mo, 18.02. 13:00 913 - 1,4
So, 17.02. 13:00 918 - 0,8
Do, 14.02. 13:00 922 - 0,5
Mi, 13.02. 13:00 922 0,0
Ortszeit Stationsdruck (hPa) Tendenz (hPa in 3 Std.)
Do, 21.02. 16:00 918 - 0,5
Do, 21.02. 13:00 918 + 0,2
Do, 21.02. 10:00 918 + 0,7
Mi, 20.02. 16:00 913 + 0,3
Mi, 20.02. 13:00 913 0,0
Ortszeit Schneehöhe (cm)
Do, 21.02. 13:00 -
Mi, 20.02. 13:00 -
Di, 19.02. 13:00 -
Mo, 18.02. 13:00 -
So, 17.02. 13:00 -
Do, 14.02. 13:00 -
Mi, 13.02. 13:00 -
Ortszeit Schneehöhe (cm)
Do, 21.02. 16:00 -
Do, 21.02. 13:00 -
Do, 21.02. 10:00 -
Mi, 20.02. 16:00 -
Mi, 20.02. 13:00 -
Link zu dieser Seite / Seite empfehlen

Das Wetter in ...